createdAt,value
2018-09-11T00:00:14.009Z,18.50
2018-09-11T00:02:41.422Z,18.40
2018-09-11T00:05:08.805Z,18.40
2018-09-11T00:07:36.177Z,18.40
2018-09-11T00:10:03.576Z,18.40
2018-09-11T00:12:31.072Z,18.40
2018-09-11T00:14:58.464Z,18.40
2018-09-11T00:17:25.870Z,18.40
2018-09-11T00:19:53.268Z,18.40
2018-09-11T00:22:20.664Z,18.40
2018-09-11T00:24:48.153Z,18.30
2018-09-11T00:27:15.775Z,18.40
2018-09-11T00:29:43.152Z,18.40
2018-09-11T00:32:10.535Z,18.40
2018-09-11T00:34:37.933Z,18.40
2018-09-11T00:37:05.325Z,18.40
2018-09-11T00:39:32.720Z,18.40
2018-09-11T00:42:00.144Z,18.30
2018-09-11T00:44:27.488Z,18.30
2018-09-11T00:46:54.853Z,18.30
2018-09-11T00:51:51.933Z,18.30
2018-09-11T00:54:19.289Z,18.30
2018-09-11T00:56:46.745Z,18.20
2018-09-11T00:59:14.130Z,18.20
2018-09-11T01:01:41.594Z,18.20
2018-09-11T01:04:09.064Z,18.20
2018-09-11T01:06:36.571Z,18.30
2018-09-11T01:09:06.575Z,18.30
2018-09-11T01:11:33.986Z,18.30
2018-09-11T01:14:01.412Z,18.30
2018-09-11T01:16:28.845Z,18.30
2018-09-11T01:18:56.279Z,18.30
2018-09-11T01:21:23.676Z,18.30
2018-09-11T01:23:51.290Z,18.20
2018-09-11T01:26:18.721Z,18.20
2018-09-11T01:28:46.127Z,18.20
2018-09-11T01:31:13.526Z,18.20
2018-09-11T01:33:40.962Z,18.20
2018-09-11T01:36:08.424Z,18.30
2018-09-11T01:38:35.935Z,18.30
2018-09-11T01:41:03.371Z,18.30
2018-09-11T01:43:30.779Z,18.30
2018-09-11T01:45:58.173Z,18.30
2018-09-11T01:48:25.588Z,18.30
2018-09-11T01:50:53.019Z,18.30
2018-09-11T01:53:20.420Z,18.40
2018-09-11T01:55:48.031Z,18.40
2018-09-11T01:58:15.428Z,18.40
2018-09-11T02:00:42.828Z,18.40
2018-09-11T02:03:10.244Z,18.40
2018-09-11T02:05:38.490Z,18.40
2018-09-11T02:08:05.880Z,18.40
2018-09-11T02:10:33.659Z,18.30
2018-09-11T02:13:01.092Z,18.30
2018-09-11T02:15:28.536Z,18.30
2018-09-11T02:17:55.983Z,18.30
2018-09-11T02:20:23.398Z,18.30
2018-09-11T02:22:50.758Z,18.30
2018-09-11T02:25:18.157Z,18.30
2018-09-11T02:27:45.524Z,18.40
2018-09-11T02:30:12.892Z,18.40
2018-09-11T02:32:40.305Z,18.50
2018-09-11T02:35:07.719Z,18.50
2018-09-11T02:37:35.118Z,18.40
2018-09-11T02:40:02.537Z,18.50
2018-09-11T02:42:29.921Z,18.50
2018-09-11T02:44:57.396Z,18.50
2018-09-11T02:47:24.894Z,18.50
2018-09-11T02:49:52.336Z,18.50
2018-09-11T02:52:19.776Z,18.60
2018-09-11T02:54:47.217Z,18.60
2018-09-11T02:57:14.734Z,18.60
2018-09-11T02:59:42.121Z,18.60
2018-09-11T03:02:09.537Z,18.60
2018-09-11T03:04:37.009Z,18.60
2018-09-11T03:07:04.453Z,18.60
2018-09-11T03:09:31.857Z,18.60
2018-09-11T03:11:59.245Z,18.60
2018-09-11T03:14:26.646Z,18.60
2018-09-11T03:16:54.114Z,18.60
2018-09-11T03:19:21.558Z,18.60
2018-09-11T03:21:48.960Z,18.70
2018-09-11T03:24:16.347Z,18.70
2018-09-11T03:26:43.912Z,18.70
2018-09-11T03:29:11.321Z,18.70
2018-09-11T03:31:38.948Z,18.70
2018-09-11T03:34:06.622Z,18.70
2018-09-11T03:36:34.090Z,18.80
2018-09-11T03:39:01.511Z,18.80
2018-09-11T03:41:28.920Z,18.80
2018-09-11T03:43:56.342Z,18.70
2018-09-11T03:46:23.815Z,18.70
2018-09-11T03:48:51.305Z,18.80
2018-09-11T03:51:18.740Z,18.80
2018-09-11T03:53:46.148Z,18.80
2018-09-11T03:56:13.556Z,18.80
2018-09-11T03:58:40.980Z,18.80
2018-09-11T04:01:08.401Z,18.80
2018-09-11T04:03:35.869Z,18.80
2018-09-11T04:06:03.324Z,18.90
2018-09-11T04:08:30.851Z,18.90
2018-09-11T04:10:58.280Z,18.80
2018-09-11T04:13:25.740Z,18.80
2018-09-11T04:15:53.191Z,18.80
2018-09-11T04:18:20.615Z,18.90
2018-09-11T04:20:48.024Z,18.90
2018-09-11T04:23:15.478Z,18.80
2018-09-11T04:25:42.996Z,18.80
2018-09-11T04:28:10.393Z,18.80
2018-09-11T04:30:37.837Z,18.70
2018-09-11T04:33:05.260Z,18.70
2018-09-11T04:35:32.662Z,18.60
2018-09-11T04:38:00.072Z,18.60
2018-09-11T04:40:27.528Z,18.60
2018-09-11T04:42:54.939Z,18.50
2018-09-11T04:45:22.326Z,18.50
2018-09-11T04:47:49.749Z,18.50
2018-09-11T04:50:17.161Z,18.50
2018-09-11T04:52:44.615Z,18.50
2018-09-11T04:55:12.089Z,18.40
2018-09-11T04:57:39.521Z,18.40
2018-09-11T05:00:06.920Z,18.30
2018-09-11T05:02:34.336Z,18.30
2018-09-11T05:05:01.752Z,18.30
2018-09-11T05:07:29.260Z,18.30
2018-09-11T05:09:56.701Z,18.20
2018-09-11T05:12:24.780Z,18.20
2018-09-11T05:14:52.228Z,18.20
2018-09-11T05:17:19.633Z,18.10
2018-09-11T05:19:47.099Z,18.10
2018-09-11T05:22:14.503Z,18.10
2018-09-11T05:24:41.985Z,18.10
2018-09-11T05:27:09.420Z,18.10
2018-09-11T05:29:36.824Z,18.20
2018-09-11T05:32:04.280Z,18.10
2018-09-11T05:34:31.691Z,18.10
2018-09-11T05:36:59.250Z,18.10
2018-09-11T05:39:26.627Z,18.20
2018-09-11T05:41:54.025Z,18.20
2018-09-11T05:44:21.425Z,18.20
2018-09-11T05:46:49.278Z,18.10
2018-09-11T05:49:16.698Z,18.20
2018-09-11T05:51:44.211Z,18.10
2018-09-11T05:54:11.699Z,18.10
2018-09-11T05:56:39.111Z,18.10
2018-09-11T05:59:06.497Z,18.10
2018-09-11T06:01:34.039Z,18.10
2018-09-11T06:04:01.429Z,18.10
2018-09-11T06:06:28.842Z,18.10
2018-09-11T06:08:56.338Z,18.10
2018-09-11T06:11:23.928Z,18.10
2018-09-11T06:13:51.404Z,18.70
2018-09-11T06:16:18.913Z,18.20
2018-09-11T06:18:46.355Z,18.20
2018-09-11T06:21:13.796Z,18.20
2018-09-11T06:23:41.269Z,18.20
2018-09-11T06:26:08.824Z,18.20
2018-09-11T06:28:36.253Z,18.20
2018-09-11T06:31:07.152Z,18.20
2018-09-11T06:33:34.782Z,18.30
2018-09-11T06:36:02.484Z,18.30
2018-09-11T06:38:30.204Z,18.30
2018-09-11T06:40:58.191Z,18.30
2018-09-11T06:43:25.665Z,18.20
2018-09-11T06:45:53.174Z,18.30
2018-09-11T06:48:20.813Z,18.30
2018-09-11T06:50:48.308Z,18.30
2018-09-11T06:53:15.708Z,18.40
2018-09-11T06:55:43.765Z,18.40
2018-09-11T06:58:11.220Z,18.40
2018-09-11T07:00:38.797Z,18.50
2018-09-11T07:03:06.378Z,18.50
2018-09-11T07:05:33.776Z,18.40
2018-09-11T07:08:01.217Z,18.50
2018-09-11T07:10:28.689Z,18.50
2018-09-11T07:12:56.088Z,18.50
2018-09-11T07:15:23.484Z,18.50
2018-09-11T07:17:50.901Z,18.60
2018-09-11T07:20:19.057Z,18.60
2018-09-11T07:22:46.217Z,18.60
2018-09-11T07:25:13.611Z,18.60
2018-09-11T07:27:41.642Z,18.70
2018-09-11T07:30:09.080Z,18.70
2018-09-11T07:32:36.544Z,18.70
2018-09-11T07:35:04.332Z,18.80
2018-09-11T07:37:31.737Z,18.80
2018-09-11T07:39:59.151Z,18.80
2018-09-11T07:42:26.589Z,18.80
2018-09-11T07:44:54.399Z,18.90
2018-09-11T07:47:21.831Z,20.00
2018-09-11T07:49:49.429Z,18.90
2018-09-11T07:52:16.906Z,19.00
2018-09-11T07:54:44.435Z,19.10
2018-09-11T07:57:12.184Z,19.10
2018-09-11T07:59:39.698Z,19.10
2018-09-11T08:02:07.117Z,19.10
2018-09-11T08:04:35.130Z,19.20
2018-09-11T08:07:02.568Z,19.20
2018-09-11T08:09:31.333Z,19.20
2018-09-11T08:11:58.849Z,19.20
2018-09-11T08:14:26.327Z,19.20
2018-09-11T08:16:53.764Z,18.50
2018-09-11T08:19:21.645Z,19.30
2018-09-11T08:21:49.178Z,19.30
2018-09-11T08:24:16.645Z,19.40
2018-09-11T08:26:44.084Z,19.30
2018-09-11T08:29:11.552Z,19.40
2018-09-11T08:31:39.862Z,19.50
2018-09-11T08:34:07.328Z,19.60
2018-09-11T08:36:34.863Z,19.50
2018-09-11T08:39:02.467Z,19.60
2018-09-11T08:41:29.910Z,19.60
2018-09-11T08:43:57.352Z,18.50
2018-09-11T08:46:24.876Z,19.70
2018-09-11T08:48:52.345Z,19.60
2018-09-11T08:51:19.796Z,19.70
2018-09-11T08:53:47.265Z,19.70
2018-09-11T08:56:14.780Z,19.70
2018-09-11T08:58:42.315Z,19.70
2018-09-11T09:01:09.761Z,19.70
2018-09-11T09:03:37.575Z,19.80
2018-09-11T09:06:04.964Z,19.90
2018-09-11T09:08:32.356Z,19.80
2018-09-11T09:11:00.561Z,19.90
2018-09-11T09:13:27.993Z,20.00
2018-09-11T09:15:55.505Z,20.00
2018-09-11T09:18:23.153Z,20.00
2018-09-11T09:20:50.620Z,20.00
2018-09-11T09:23:18.174Z,20.00
2018-09-11T09:25:45.767Z,20.10
2018-09-11T09:28:13.376Z,20.10
2018-09-11T09:30:40.824Z,20.10
2018-09-11T09:33:08.457Z,20.10
2018-09-11T09:35:35.949Z,20.10
2018-09-11T09:38:03.328Z,20.10
2018-09-11T09:40:30.764Z,20.10
2018-09-11T09:42:58.553Z,20.10
2018-09-11T09:45:26.098Z,20.20
2018-09-11T09:47:53.523Z,19.50
2018-09-11T09:50:20.944Z,20.20
2018-09-11T09:52:48.376Z,20.20
2018-09-11T09:55:15.768Z,20.40
2018-09-11T09:57:43.906Z,20.40
2018-09-11T10:00:11.363Z,20.40
2018-09-11T10:02:38.878Z,20.40
2018-09-11T10:05:06.355Z,20.50
2018-09-11T10:07:33.980Z,20.60
2018-09-11T10:10:01.369Z,20.60
2018-09-11T10:12:29.157Z,20.70
2018-09-11T10:14:56.632Z,20.70
2018-09-11T10:17:24.422Z,20.70
2018-09-11T10:19:52.033Z,20.70
2018-09-11T10:22:19.444Z,20.90
2018-09-11T10:24:47.090Z,20.90
2018-09-11T10:27:14.837Z,21.00
2018-09-11T10:29:42.461Z,21.10
2018-09-11T10:32:09.953Z,20.90
2018-09-11T10:34:37.448Z,21.30
2018-09-11T10:37:04.851Z,21.30
2018-09-11T10:39:32.521Z,21.30
2018-09-11T10:41:59.965Z,21.40
2018-09-11T10:44:27.520Z,21.40
2018-09-11T10:46:55.009Z,21.80
2018-09-11T10:49:22.408Z,22.10
2018-09-11T10:51:49.977Z,21.40
2018-09-11T10:54:17.542Z,21.40
2018-09-11T10:56:45.028Z,21.60
2018-09-11T10:59:12.589Z,21.40
2018-09-11T11:01:40.071Z,21.40
2018-09-11T11:04:07.500Z,21.40
2018-09-11T11:06:35.148Z,21.40
2018-09-11T11:09:02.677Z,21.40
2018-09-11T11:11:30.064Z,21.40
2018-09-11T11:13:58.357Z,21.40
2018-09-11T11:16:25.840Z,21.40
2018-09-11T11:18:53.308Z,21.40
2018-09-11T11:21:20.852Z,21.40
2018-09-11T11:23:48.338Z,20.70
2018-09-11T11:26:15.788Z,22.20
2018-09-11T11:28:43.244Z,22.10
2018-09-11T11:31:10.612Z,21.60
2018-09-11T11:33:38.116Z,21.80
2018-09-11T11:36:05.500Z,21.80
2018-09-11T11:38:34.344Z,21.90
2018-09-11T11:41:01.827Z,21.90
2018-09-11T11:43:29.319Z,21.90
2018-09-11T11:45:56.788Z,21.80
2018-09-11T11:48:24.521Z,22.10
2018-09-11T11:50:51.883Z,21.90
2018-09-11T11:53:19.331Z,21.90
2018-09-11T11:55:46.766Z,21.80
2018-09-11T11:58:14.172Z,22.70
2018-09-11T12:00:41.833Z,21.90
2018-09-11T12:03:09.308Z,21.90
2018-09-11T12:05:36.797Z,22.30
2018-09-11T12:08:04.264Z,21.80
2018-09-11T12:10:31.871Z,21.70
2018-09-11T12:12:59.402Z,21.80
2018-09-11T12:15:26.857Z,21.70
2018-09-11T12:17:54.308Z,22.30
2018-09-11T12:20:21.837Z,21.70
2018-09-11T12:22:49.330Z,21.80
2018-09-11T12:25:16.857Z,21.80
2018-09-11T12:27:44.578Z,22.00
2018-09-11T12:30:12.040Z,22.00
2018-09-11T12:32:39.440Z,22.00
2018-09-11T12:35:07.063Z,22.00
2018-09-11T12:37:34.528Z,22.10
2018-09-11T12:40:02.037Z,22.20
2018-09-11T12:42:29.486Z,22.20
2018-09-11T12:44:56.841Z,22.30
2018-09-11T12:47:24.847Z,22.30
2018-09-11T12:49:52.026Z,22.20
2018-09-11T12:52:19.476Z,22.20
2018-09-11T12:54:46.896Z,22.20
2018-09-11T12:57:14.363Z,22.20
2018-09-11T12:59:41.856Z,22.20
2018-09-11T13:02:09.304Z,22.20
2018-09-11T13:04:36.996Z,22.20
2018-09-11T13:07:05.238Z,22.20
2018-09-11T13:09:32.651Z,22.70
2018-09-11T13:12:00.364Z,22.20
2018-09-11T13:14:28.180Z,22.10
2018-09-11T13:16:55.619Z,22.20
2018-09-11T13:19:23.027Z,22.10
2018-09-11T13:21:50.859Z,22.10
2018-09-11T13:24:18.577Z,22.10
2018-09-11T13:26:45.979Z,22.00
2018-09-11T13:29:13.471Z,22.00
2018-09-11T13:31:41.045Z,22.00
2018-09-11T13:34:08.563Z,21.90
2018-09-11T13:36:36.268Z,21.90
2018-09-11T13:39:04.796Z,21.70
2018-09-11T13:41:32.550Z,21.80
2018-09-11T13:43:59.961Z,21.70
2018-09-11T13:46:27.335Z,21.70
2018-09-11T13:48:54.764Z,21.70
2018-09-11T13:51:22.192Z,21.70
2018-09-11T13:53:49.617Z,21.70
2018-09-11T13:56:17.065Z,21.70
2018-09-11T13:58:44.493Z,21.70
2018-09-11T14:01:12.463Z,21.70
2018-09-11T14:03:40.067Z,21.60
2018-09-11T14:06:07.459Z,21.60
2018-09-11T14:08:34.858Z,21.60
2018-09-11T14:11:02.287Z,21.60
2018-09-11T14:13:29.722Z,21.60
2018-09-11T14:15:57.116Z,21.70
2018-09-11T14:18:24.492Z,21.60
2018-09-11T14:20:52.549Z,21.60
2018-09-11T14:23:19.928Z,21.60
2018-09-11T14:25:47.788Z,21.60
2018-09-11T14:28:15.175Z,21.60
2018-09-11T14:30:42.808Z,21.60
2018-09-11T14:33:10.277Z,21.60
2018-09-11T14:35:38.035Z,22.60
2018-09-11T14:38:05.620Z,21.60
2018-09-11T14:40:33.151Z,21.60
2018-09-11T14:43:00.600Z,21.70
2018-09-11T14:45:28.188Z,21.20
2018-09-11T14:47:55.660Z,21.60
2018-09-11T14:50:23.236Z,21.60
2018-09-11T14:52:50.792Z,21.60
2018-09-11T14:55:18.297Z,21.60
2018-09-11T14:57:45.776Z,21.50
2018-09-11T15:00:13.274Z,21.60
2018-09-11T15:02:40.712Z,21.50
2018-09-11T15:05:08.169Z,21.50
2018-09-11T15:07:35.651Z,21.50
2018-09-11T15:10:03.253Z,21.50
2018-09-11T15:12:30.764Z,21.40
2018-09-11T15:14:58.348Z,21.40
2018-09-11T15:17:25.760Z,21.40
2018-09-11T15:19:53.253Z,21.40
2018-09-11T15:22:20.708Z,21.40
2018-09-11T15:24:48.053Z,21.50
2018-09-11T15:27:15.464Z,21.30
2018-09-11T15:29:42.878Z,21.30
2018-09-11T15:32:10.283Z,21.30
2018-09-11T15:34:37.740Z,21.30
2018-09-11T15:37:05.116Z,21.30
2018-09-11T15:39:32.525Z,21.30
2018-09-11T15:41:59.912Z,21.30
2018-09-11T15:44:28.092Z,21.30
2018-09-11T15:46:55.948Z,21.30
2018-09-11T15:49:23.351Z,21.40
2018-09-11T15:51:50.788Z,21.40
2018-09-11T15:54:18.194Z,21.40
2018-09-11T15:56:45.556Z,21.40
2018-09-11T15:59:12.973Z,21.40
2018-09-11T16:01:40.385Z,21.40
2018-09-11T16:04:07.782Z,21.40
2018-09-11T16:06:35.172Z,21.40
2018-09-11T16:13:57.981Z,21.30
2018-09-11T16:16:25.328Z,21.20
2018-09-11T16:18:52.734Z,21.10
2018-09-11T16:21:20.135Z,21.10
2018-09-11T16:23:47.515Z,21.00
2018-09-11T16:26:15.869Z,21.00
2018-09-11T16:28:43.353Z,21.50
2018-09-11T16:31:10.973Z,20.90
2018-09-11T16:33:38.388Z,20.90
2018-09-11T16:36:05.747Z,20.90
2018-09-11T16:38:33.165Z,20.90
2018-09-11T16:41:00.545Z,20.90
2018-09-11T16:43:27.937Z,20.90
2018-09-11T16:45:55.315Z,20.90
2018-09-11T16:48:22.691Z,20.90
2018-09-11T16:50:50.055Z,20.90
2018-09-11T16:53:17.468Z,20.90
2018-09-11T16:55:44.869Z,20.90
2018-09-11T16:58:12.268Z,20.80
2018-09-11T17:00:39.650Z,20.80
2018-09-11T17:03:06.998Z,20.80
2018-09-11T17:05:34.401Z,20.80
2018-09-11T17:08:01.779Z,20.80
2018-09-11T17:10:29.152Z,20.80
2018-09-11T17:12:56.627Z,20.90
2018-09-11T17:15:24.024Z,20.80
2018-09-11T17:17:51.429Z,20.80
2018-09-11T17:20:18.866Z,20.70
2018-09-11T17:22:46.265Z,20.80
2018-09-11T17:25:13.633Z,20.80
2018-09-11T17:27:41.040Z,20.80
2018-09-11T17:30:08.403Z,20.80
2018-09-11T17:32:35.819Z,20.70
2018-09-11T17:35:03.323Z,20.70
2018-09-11T17:37:30.738Z,20.70
2018-09-11T17:39:58.117Z,20.70
2018-09-11T17:42:25.483Z,20.70
2018-09-11T17:44:52.856Z,20.70
2018-09-11T17:47:20.260Z,20.60
2018-09-11T17:49:47.633Z,20.70
2018-09-11T17:52:15.040Z,20.70
2018-09-11T17:54:42.461Z,20.70
2018-09-11T17:57:09.864Z,20.70
2018-09-11T17:59:37.232Z,20.60
2018-09-11T18:02:04.625Z,20.60
2018-09-11T18:04:31.983Z,20.60
2018-09-11T18:06:59.457Z,20.50
2018-09-11T18:09:26.841Z,20.60
2018-09-11T18:11:54.227Z,20.50
2018-09-11T18:14:22.881Z,20.50
2018-09-11T18:16:50.328Z,20.50
2018-09-11T18:19:17.684Z,20.40
2018-09-11T18:21:45.040Z,20.50
2018-09-11T18:24:12.415Z,20.40
2018-09-11T18:26:39.797Z,20.40
2018-09-11T18:29:07.287Z,20.40
2018-09-11T18:31:34.671Z,20.40
2018-09-11T18:34:02.092Z,20.30
2018-09-11T18:36:29.506Z,20.30
2018-09-11T18:38:56.902Z,20.30
2018-09-11T18:41:24.313Z,20.30
2018-09-11T18:43:51.736Z,20.30
2018-09-11T18:46:19.125Z,20.30
2018-09-11T18:48:46.501Z,20.30
2018-09-11T18:51:13.975Z,20.30
2018-09-11T18:53:41.976Z,20.30
2018-09-11T18:56:09.368Z,20.30
2018-09-11T18:58:36.767Z,20.30
2018-09-11T19:01:04.141Z,20.30
2018-09-11T19:03:32.708Z,20.30
2018-09-11T19:06:00.058Z,20.30
2018-09-11T19:08:27.473Z,20.20
2018-09-11T19:10:54.870Z,20.30
2018-09-11T19:13:22.210Z,20.20
2018-09-11T19:15:49.598Z,20.20
2018-09-11T19:18:16.983Z,20.30
2018-09-11T19:20:44.384Z,20.20
2018-09-11T19:23:11.848Z,20.30
2018-09-11T19:25:39.283Z,20.20
2018-09-11T19:28:06.674Z,20.20
2018-09-11T19:30:34.062Z,20.20
2018-09-11T19:33:01.564Z,20.10
2018-09-11T19:35:28.970Z,20.10
2018-09-11T19:37:56.558Z,20.20
2018-09-11T19:40:24.038Z,20.20
2018-09-11T19:42:51.472Z,20.20
2018-09-11T19:45:18.952Z,20.20
2018-09-11T19:47:46.377Z,21.50
2018-09-11T19:50:13.822Z,20.20
2018-09-11T19:52:41.196Z,20.20
2018-09-11T19:55:08.584Z,20.20
2018-09-11T19:57:36.038Z,20.20
2018-09-11T20:00:03.476Z,20.20
2018-09-11T20:02:31.344Z,20.20
2018-09-11T20:04:58.822Z,20.20
2018-09-11T20:07:26.211Z,20.20
2018-09-11T20:09:53.609Z,20.20
2018-09-11T20:12:21.700Z,20.20
2018-09-11T20:14:49.080Z,20.10
2018-09-11T20:17:16.473Z,20.20
2018-09-11T20:19:43.852Z,20.10
2018-09-11T20:22:11.789Z,20.20
2018-09-11T20:24:39.240Z,20.10
2018-09-11T20:27:07.026Z,19.80
2018-09-11T20:29:34.467Z,20.20
2018-09-11T20:32:01.990Z,20.20
2018-09-11T20:34:29.297Z,20.20
2018-09-11T20:36:56.691Z,20.10
2018-09-11T20:39:24.080Z,20.10
2018-09-11T20:41:51.840Z,20.10
2018-09-11T20:44:19.263Z,20.10
2018-09-11T20:46:46.620Z,20.10
2018-09-11T20:49:13.980Z,20.10
2018-09-11T20:51:41.335Z,20.10
2018-09-11T20:54:08.701Z,20.20
2018-09-11T20:56:36.073Z,20.20
2018-09-11T20:59:03.447Z,20.20
2018-09-11T21:01:30.872Z,20.20
2018-09-11T21:03:58.262Z,20.10
2018-09-11T21:06:25.650Z,20.10
2018-09-11T21:08:53.024Z,20.20
2018-09-11T21:11:20.417Z,20.20
2018-09-11T21:13:47.805Z,20.20
2018-09-11T21:16:15.194Z,20.20
2018-09-11T21:18:42.562Z,20.20
2018-09-11T21:21:09.948Z,20.20
2018-09-11T21:23:37.416Z,20.20
2018-09-11T21:26:04.808Z,20.20
2018-09-11T21:28:32.924Z,20.20
2018-09-11T21:31:00.825Z,20.20
2018-09-11T21:33:28.220Z,20.20
2018-09-11T21:35:55.591Z,20.20
2018-09-11T21:38:26.470Z,20.20
2018-09-11T21:40:54.119Z,20.20
2018-09-11T21:43:21.577Z,20.20
2018-09-11T21:45:49.676Z,20.20
2018-09-11T21:48:17.036Z,20.20
2018-09-11T21:50:44.424Z,20.20
2018-09-11T21:53:11.798Z,20.20
2018-09-11T21:55:39.157Z,20.20
2018-09-11T21:58:06.508Z,20.20
2018-09-11T22:00:34.020Z,20.20
2018-09-11T22:03:04.727Z,20.20
2018-09-11T22:05:32.307Z,20.20
2018-09-11T22:07:59.668Z,20.20
2018-09-11T22:10:27.031Z,20.20
2018-09-11T22:12:54.427Z,20.20
2018-09-11T22:15:21.864Z,20.20
2018-09-11T22:17:49.242Z,20.20
2018-09-11T22:20:16.604Z,20.20
2018-09-11T22:22:44.046Z,20.20
2018-09-11T22:25:11.408Z,20.20
2018-09-11T22:27:38.761Z,20.20
2018-09-11T22:30:06.185Z,20.20
2018-09-11T22:32:34.500Z,20.20
2018-09-11T22:35:01.860Z,20.20
2018-09-11T22:37:30.600Z,20.10
2018-09-11T22:39:57.987Z,20.20
2018-09-11T22:42:25.362Z,20.20
2018-09-11T22:44:52.748Z,20.20
2018-09-11T22:47:20.136Z,20.20
2018-09-11T22:49:47.521Z,20.20
2018-09-11T22:52:14.899Z,20.20
2018-09-11T22:54:42.306Z,20.20
2018-09-11T22:57:09.736Z,20.20
2018-09-11T22:59:37.137Z,20.20
2018-09-11T23:02:04.544Z,20.20
2018-09-11T23:04:31.905Z,20.20
2018-09-11T23:06:59.292Z,20.20
2018-09-11T23:09:26.672Z,20.20
2018-09-11T23:11:54.032Z,20.20
2018-09-11T23:14:21.375Z,20.20
2018-09-11T23:16:48.743Z,20.20
2018-09-11T23:19:16.095Z,20.20
2018-09-11T23:21:43.472Z,20.20
2018-09-11T23:24:10.840Z,20.20
2018-09-11T23:26:38.253Z,20.10
2018-09-11T23:29:05.664Z,20.20
2018-09-11T23:31:33.364Z,20.40
2018-09-11T23:34:00.746Z,20.20
2018-09-11T23:36:28.101Z,20.20
2018-09-11T23:38:55.431Z,20.20
2018-09-11T23:41:22.864Z,20.20
2018-09-11T23:43:50.529Z,20.20
2018-09-11T23:46:19.113Z,20.20
2018-09-11T23:48:46.697Z,20.20
2018-09-11T23:51:14.101Z,20.20
2018-09-11T23:53:42.356Z,20.20
2018-09-11T23:56:09.765Z,20.20
2018-09-11T23:58:37.135Z,20.20
